CheckWX is a tool to help pilots better visualize weather data.  It is not intended as a substitute for an official pre-flight weather briefing.

12:21:24 UTC

17J METAR
Donalsonville Municipal Airport
Donalsonville, Georgia, USA
Current

26 mins ago

K17J 251155Z AUTO 22003KT 1/4SM FG OVC002 13/13 A3012 RMK AO2 T01330132 10133 20098
Observed
Mar-25 @ 11:55 UTC
Wind
  • 220° at 3 KTS
Visibility
1/4 SM
Flight Rules
LIFR
Conditions
Fog
Cloud Levels
  • Overcast at 200' AGL
Temperature
13°C / 55°F
Dewpoint
13°C / 55°F
Humidity
100%
Altimeter
30.12" Hg
Pressure
1020.02 hPa
Previous

46 mins ago

K17J 251135Z AUTO 21003KT 1/4SM FG OVC002 13/13 A3011 RMK AO2 T01320132
Observed
Mar-25 @ 11:35 UTC
Wind
  • 210° at 3 KTS
Visibility
1/4 SM
Flight Rules
LIFR
Conditions
Fog
Cloud Levels
  • Overcast at 200' AGL
Temperature
13°C / 55°F
Dewpoint
13°C / 55°F
Humidity
100%
Altimeter
30.11" Hg
Pressure
1019.62 hPa
Previous

1 hour ago

K17J 251115Z AUTO 24004KT M1/4SM FG OVC002 13/13 A3011 RMK AO2 T01310130
Observed
Mar-25 @ 11:15 UTC
Wind
  • 240° at 4 KTS
Visibility
1/4 SM
Flight Rules
LIFR
Conditions
Fog
Cloud Levels
  • Overcast at 200' AGL
Temperature
13°C / 55°F
Dewpoint
13°C / 55°F
Humidity
100%
Altimeter
30.11" Hg
Pressure
1019.62 hPa